Machias, Maine
Current Conditions -  °F | °C
As of 12:15 PM on Thursday 30 Oct 2014 (Local Time) from KBHB Reporting Station
Overcast Overcast  
Wind Chill: 54°   Ceiling: 9000
Heat Index: 54°   Visibility: 10mi
Dew Point: 45°   Wind: 6mph
Humidity: 72%   Direction: 290°WNW
Pressure: 29.86"   Gusts: NA
Location:  44.72°N, 67.46°W
Report Text: KBHB 301615Z AUTO 29005KT 10SM FEW048 OVC090 12/07 A2986 RMK AO1
Loading
Personal Weather Stations






























Interactive Weather Map
Tropical Storm Tracking
New forecast layout! Learn more

10-Day Weather Forecast

Advertisements
Track Severe Weather on mobile